sensor_id;sensor_type;location;lat;lon;timestamp;P1;durP1;ratioP1;P2;durP2;ratioP2
50495;SDS011;38806;51.554;5.704;2022-09-09T00:37:52;5.80;;;3.50;;
50495;SDS011;38806;51.554;5.704;2022-09-09T00:48:47;6.70;;;4.03;;
50495;SDS011;38806;51.554;5.704;2022-09-09T00:50:55;7.68;;;5.32;;
50495;SDS011;38806;51.554;5.704;2022-09-09T01:16:26;10.20;;;5.07;;
50495;SDS011;38806;51.554;5.704;2022-09-09T01:18:32;7.43;;;4.10;;
50495;SDS011;38806;51.554;5.704;2022-09-09T01:29:37;8.40;;;3.50;;
50495;SDS011;38806;51.554;5.704;2022-09-09T01:31:41;11.77;;;4.78;;
50495;SDS011;38806;51.554;5.704;2022-09-09T01:53:54;9.75;;;4.43;;
50495;SDS011;38806;51.554;5.704;2022-09-09T02:00:57;11.50;;;3.78;;
50495;SDS011;38806;51.554;5.704;2022-09-09T02:10:08;11.30;;;4.00;;
50495;SDS011;38806;51.554;5.704;2022-09-09T02:32:14;10.95;;;5.47;;
50495;SDS011;38806;51.554;5.704;2022-09-09T02:34:35;13.60;;;7.18;;
50495;SDS011;38806;51.554;5.704;2022-09-09T02:36:45;11.07;;;6.20;;
50495;SDS011;38806;51.554;5.704;2022-09-09T04:06:21;13.52;;;6.05;;
50495;SDS011;38806;51.554;5.704;2022-09-09T04:10:55;10.88;;;5.93;;
50495;SDS011;38806;51.554;5.704;2022-09-09T04:18:46;14.70;;;6.13;;
50495;SDS011;38806;51.554;5.704;2022-09-09T04:23:51;10.80;;;6.38;;
50495;SDS011;38806;51.554;5.704;2022-09-09T04:25:52;22.08;;;6.43;;
50495;SDS011;38806;51.554;5.704;2022-09-09T04:27:57;11.35;;;5.47;;
50495;SDS011;38806;51.554;5.704;2022-09-09T04:29:58;15.98;;;6.32;;
50495;SDS011;38806;51.554;5.704;2022-09-09T04:31:58;13.10;;;6.53;;
50495;SDS011;38806;51.554;5.704;2022-09-09T04:33:59;12.85;;;8.05;;
50495;SDS011;38806;51.554;5.704;2022-09-09T04:36:04;17.88;;;7.68;;
50495;SDS011;38806;51.554;5.704;2022-09-09T04:38:05;15.52;;;5.82;;
50495;SDS011;38806;51.554;5.704;2022-09-09T04:40:09;12.68;;;5.55;;
50495;SDS011;38806;51.554;5.704;2022-09-09T04:42:09;11.15;;;5.95;;
50495;SDS011;38806;51.554;5.704;2022-09-09T04:44:10;8.98;;;5.13;;
50495;SDS011;38806;51.554;5.704;2022-09-09T04:46:10;16.73;;;7.18;;
50495;SDS011;38806;51.554;5.704;2022-09-09T04:48:10;9.75;;;5.03;;
50495;SDS011;38806;51.554;5.704;2022-09-09T04:50:10;13.00;;;4.90;;
50495;SDS011;38806;51.554;5.704;2022-09-09T04:52:12;11.20;;;5.43;;
50495;SDS011;38806;51.554;5.704;2022-09-09T04:54:12;17.00;;;5.00;;
50495;SDS011;38806;51.554;5.704;2022-09-09T04:56:15;12.40;;;4.82;;
50495;SDS011;38806;51.554;5.704;2022-09-09T04:58:17;9.13;;;4.68;;
50495;SDS011;38806;51.554;5.704;2022-09-09T05:00:17;9.65;;;4.85;;
50495;SDS011;38806;51.554;5.704;2022-09-09T05:02:18;9.77;;;4.93;;
50495;SDS011;38806;51.554;5.704;2022-09-09T05:04:19;9.52;;;4.72;;
50495;SDS011;38806;51.554;5.704;2022-09-09T05:06:20;10.85;;;5.43;;
50495;SDS011;38806;51.554;5.704;2022-09-09T05:08:21;13.15;;;5.43;;
50495;SDS011;38806;51.554;5.704;2022-09-09T05:10:22;12.73;;;5.18;;
50495;SDS011;38806;51.554;5.704;2022-09-09T05:12:23;12.18;;;6.05;;
50495;SDS011;38806;51.554;5.704;2022-09-09T05:14:25;10.38;;;5.10;;
50495;SDS011;38806;51.554;5.704;2022-09-09T05:16:26;17.15;;;5.78;;
50495;SDS011;38806;51.554;5.704;2022-09-09T05:18:26;13.73;;;4.93;;
50495;SDS011;38806;51.554;5.704;2022-09-09T05:20:27;12.27;;;5.43;;
50495;SDS011;38806;51.554;5.704;2022-09-09T05:22:28;9.02;;;4.55;;
50495;SDS011;38806;51.554;5.704;2022-09-09T05:24:28;11.05;;;4.25;;
50495;SDS011;38806;51.554;5.704;2022-09-09T05:26:29;11.35;;;4.88;;
50495;SDS011;38806;51.554;5.704;2022-09-09T05:28:29;10.52;;;5.82;;
50495;SDS011;38806;51.554;5.704;2022-09-09T05:30:30;12.57;;;4.47;;
50495;SDS011;38806;51.554;5.704;2022-09-09T05:32:30;11.60;;;5.10;;
50495;SDS011;38806;51.554;5.704;2022-09-09T05:34:34;13.30;;;5.20;;
50495;SDS011;38806;51.554;5.704;2022-09-09T05:36:34;12.23;;;6.30;;
50495;SDS011;38806;51.554;5.704;2022-09-09T05:38:34;14.68;;;6.32;;
50495;SDS011;38806;51.554;5.704;2022-09-09T05:40:35;7.35;;;4.10;;
50495;SDS011;38806;51.554;5.704;2022-09-09T05:42:36;11.20;;;5.00;;
50495;SDS011;38806;51.554;5.704;2022-09-09T05:44:36;11.20;;;4.47;;
50495;SDS011;38806;51.554;5.704;2022-09-09T05:46:37;14.95;;;5.20;;
50495;SDS011;38806;51.554;5.704;2022-09-09T05:48:38;12.40;;;4.57;;
50495;SDS011;38806;51.554;5.704;2022-09-09T05:50:40;11.85;;;4.82;;
50495;SDS011;38806;51.554;5.704;2022-09-09T05:52:41;9.63;;;5.15;;
50495;SDS011;38806;51.554;5.704;2022-09-09T05:54:41;11.95;;;5.38;;
50495;SDS011;38806;51.554;5.704;2022-09-09T05:56:42;17.60;;;5.32;;
50495;SDS011;38806;51.554;5.704;2022-09-09T05:58:43;11.75;;;5.35;;
50495;SDS011;38806;51.554;5.704;2022-09-09T06:00:44;14.75;;;5.38;;
50495;SDS011;38806;51.554;5.704;2022-09-09T06:02:49;12.23;;;4.82;;
50495;SDS011;38806;51.554;5.704;2022-09-09T06:04:51;16.13;;;6.07;;
50495;SDS011;38806;51.554;5.704;2022-09-09T06:06:51;10.43;;;4.30;;
50495;SDS011;38806;51.554;5.704;2022-09-09T06:08:52;12.57;;;5.35;;
50495;SDS011;38806;51.554;5.704;2022-09-09T06:11:00;9.95;;;4.43;;
50495;SDS011;38806;51.554;5.704;2022-09-09T06:13:02;17.13;;;5.85;;
50495;SDS011;38806;51.554;5.704;2022-09-09T06:15:03;13.73;;;4.95;;
50495;SDS011;38806;51.554;5.704;2022-09-09T06:17:03;10.63;;;5.30;;
50495;SDS011;38806;51.554;5.704;2022-09-09T06:19:05;18.02;;;5.78;;
50495;SDS011;38806;51.554;5.704;2022-09-09T06:21:07;11.48;;;5.22;;
50495;SDS011;38806;51.554;5.704;2022-09-09T06:23:11;11.38;;;4.60;;
50495;SDS011;38806;51.554;5.704;2022-09-09T06:25:12;14.55;;;5.53;;
50495;SDS011;38806;51.554;5.704;2022-09-09T06:27:12;13.32;;;5.38;;
50495;SDS011;38806;51.554;5.704;2022-09-09T06:29:13;13.35;;;5.88;;
50495;SDS011;38806;51.554;5.704;2022-09-09T06:31:14;13.98;;;6.03;;
50495;SDS011;38806;51.554;5.704;2022-09-09T06:33:21;13.52;;;5.28;;
50495;SDS011;38806;51.554;5.704;2022-09-09T06:35:21;15.35;;;7.18;;
50495;SDS011;38806;51.554;5.704;2022-09-09T06:37:21;20.13;;;5.80;;
50495;SDS011;38806;51.554;5.704;2022-09-09T06:39:24;14.15;;;7.35;;
50495;SDS011;38806;51.554;5.704;2022-09-09T06:41:24;16.23;;;5.63;;
50495;SDS011;38806;51.554;5.704;2022-09-09T06:43:26;11.48;;;5.20;;
50495;SDS011;38806;51.554;5.704;2022-09-09T06:45:27;11.77;;;5.30;;
50495;SDS011;38806;51.554;5.704;2022-09-09T06:47:28;13.65;;;5.03;;
50495;SDS011;38806;51.554;5.704;2022-09-09T06:49:29;11.13;;;7.15;;
50495;SDS011;38806;51.554;5.704;2022-09-09T06:51:30;17.63;;;5.75;;
50495;SDS011;38806;51.554;5.704;2022-09-09T06:53:36;20.85;;;7.63;;
50495;SDS011;38806;51.554;5.704;2022-09-09T06:55:38;12.63;;;5.40;;
50495;SDS011;38806;51.554;5.704;2022-09-09T06:57:40;14.50;;;5.50;;
50495;SDS011;38806;51.554;5.704;2022-09-09T06:59:40;9.73;;;5.10;;
50495;SDS011;38806;51.554;5.704;2022-09-09T07:01:44;11.57;;;6.00;;
50495;SDS011;38806;51.554;5.704;2022-09-09T07:03:45;20.65;;;7.95;;
50495;SDS011;38806;51.554;5.704;2022-09-09T07:05:54;14.35;;;5.28;;
50495;SDS011;38806;51.554;5.704;2022-09-09T07:07:59;13.50;;;5.47;;
50495;SDS011;38806;51.554;5.704;2022-09-09T07:09:59;12.63;;;5.32;;
50495;SDS011;38806;51.554;5.704;2022-09-09T07:11:59;10.55;;;5.13;;
50495;SDS011;38806;51.554;5.704;2022-09-09T07:14:00;11.38;;;4.80;;
50495;SDS011;38806;51.554;5.704;2022-09-09T07:16:08;11.90;;;5.60;;
50495;SDS011;38806;51.554;5.704;2022-09-09T07:18:10;13.70;;;5.95;;
50495;SDS011;38806;51.554;5.704;2022-09-09T07:20:10;8.43;;;4.97;;
50495;SDS011;38806;51.554;5.704;2022-09-09T07:22:12;12.52;;;4.60;;
50495;SDS011;38806;51.554;5.704;2022-09-09T07:24:12;10.88;;;4.50;;
50495;SDS011;38806;51.554;5.704;2022-09-09T07:26:13;11.90;;;5.75;;
50495;SDS011;38806;51.554;5.704;2022-09-09T07:28:15;9.20;;;4.95;;
50495;SDS011;38806;51.554;5.704;2022-09-09T07:30:16;13.85;;;4.45;;
50495;SDS011;38806;51.554;5.704;2022-09-09T07:32:18;13.52;;;5.80;;
50495;SDS011;38806;51.554;5.704;2022-09-09T07:34:19;11.23;;;5.18;;
50495;SDS011;38806;51.554;5.704;2022-09-09T07:36:21;14.68;;;6.93;;
50495;SDS011;38806;51.554;5.704;2022-09-09T07:38:25;11.82;;;4.82;;
50495;SDS011;38806;51.554;5.704;2022-09-09T07:40:26;11.32;;;4.40;;
50495;SDS011;38806;51.554;5.704;2022-09-09T07:42:26;8.82;;;5.43;;
50495;SDS011;38806;51.554;5.704;2022-09-09T07:44:27;12.23;;;4.25;;
50495;SDS011;38806;51.554;5.704;2022-09-09T07:46:27;12.20;;;4.70;;
50495;SDS011;38806;51.554;5.704;2022-09-09T07:48:28;14.30;;;3.15;;
50495;SDS011;38806;51.554;5.704;2022-09-09T07:50:29;14.00;;;3.45;;
50495;SDS011;38806;51.554;5.704;2022-09-09T07:52:29;9.63;;;3.38;;
50495;SDS011;38806;51.554;5.704;2022-09-09T07:54:29;10.23;;;3.25;;
50495;SDS011;38806;51.554;5.704;2022-09-09T07:56:30;9.40;;;3.70;;
50495;SDS011;38806;51.554;5.704;2022-09-09T07:58:31;11.68;;;4.07;;
50495;SDS011;38806;51.554;5.704;2022-09-09T08:00:31;11.43;;;3.50;;
50495;SDS011;38806;51.554;5.704;2022-09-09T08:02:33;10.50;;;3.42;;
50495;SDS011;38806;51.554;5.704;2022-09-09T08:04:33;7.75;;;3.10;;
50495;SDS011;38806;51.554;5.704;2022-09-09T08:06:37;12.75;;;3.03;;
50495;SDS011;38806;51.554;5.704;2022-09-09T08:08:39;8.65;;;3.42;;
50495;SDS011;38806;51.554;5.704;2022-09-09T08:10:41;10.85;;;4.45;;
50495;SDS011;38806;51.554;5.704;2022-09-09T08:12:42;9.98;;;2.90;;
50495;SDS011;38806;51.554;5.704;2022-09-09T08:14:42;5.97;;;3.08;;
50495;SDS011;38806;51.554;5.704;2022-09-09T08:16:44;9.60;;;3.20;;
50495;SDS011;38806;51.554;5.704;2022-09-09T08:18:46;8.45;;;3.17;;
50495;SDS011;38806;51.554;5.704;2022-09-09T08:20:47;7.03;;;3.53;;
50495;SDS011;38806;51.554;5.704;2022-09-09T08:22:47;9.23;;;3.25;;
50495;SDS011;38806;51.554;5.704;2022-09-09T08:24:49;12.10;;;2.90;;
50495;SDS011;38806;51.554;5.704;2022-09-09T08:26:50;11.85;;;2.83;;
50495;SDS011;38806;51.554;5.704;2022-09-09T08:28:51;8.10;;;2.63;;
50495;SDS011;38806;51.554;5.704;2022-09-09T08:30:53;7.78;;;4.00;;
50495;SDS011;38806;51.554;5.704;2022-09-09T08:32:54;11.10;;;2.33;;
50495;SDS011;38806;51.554;5.704;2022-09-09T08:34:54;13.77;;;3.35;;
50495;SDS011;38806;51.554;5.704;2022-09-09T08:36:54;12.82;;;2.88;;
50495;SDS011;38806;51.554;5.704;2022-09-09T08:38:56;9.65;;;2.38;;
50495;SDS011;38806;51.554;5.704;2022-09-09T08:40:59;7.40;;;2.88;;
50495;SDS011;38806;51.554;5.704;2022-09-09T08:43:07;5.97;;;2.67;;
50495;SDS011;38806;51.554;5.704;2022-09-09T08:45:19;5.47;;;2.17;;
50495;SDS011;38806;51.554;5.704;2022-09-09T08:50:08;8.02;;;2.53;;
50495;SDS011;38806;51.554;5.704;2022-09-09T08:52:14;13.95;;;2.75;;
50495;SDS011;38806;51.554;5.704;2022-09-09T08:54:19;9.45;;;2.63;;
50495;SDS011;38806;51.554;5.704;2022-09-09T08:56:21;8.80;;;2.38;;
50495;SDS011;38806;51.554;5.704;2022-09-09T08:58:30;8.80;;;2.67;;
50495;SDS011;38806;51.554;5.704;2022-09-09T09:00:35;7.22;;;2.17;;
50495;SDS011;38806;51.554;5.704;2022-09-09T09:07:21;7.38;;;2.35;;
50495;SDS011;38806;51.554;5.704;2022-09-09T09:11:59;10.63;;;2.50;;
50495;SDS011;38806;51.554;5.704;2022-09-09T09:14:07;7.55;;;3.50;;
50495;SDS011;38806;51.554;5.704;2022-09-09T09:16:34;6.10;;;2.30;;
50495;SDS011;38806;51.554;5.704;2022-09-09T09:18:41;9.90;;;2.95;;
50495;SDS011;38806;51.554;5.704;2022-09-09T09:20:45;7.75;;;2.40;;
50495;SDS011;38806;51.554;5.704;2022-09-09T09:22:52;7.20;;;2.30;;
50495;SDS011;38806;51.554;5.704;2022-09-09T09:24:56;7.47;;;2.53;;
50495;SDS011;38806;51.554;5.704;2022-09-09T09:27:07;9.68;;;3.03;;
50495;SDS011;38806;51.554;5.704;2022-09-09T09:29:19;10.93;;;2.63;;
50495;SDS011;38806;51.554;5.704;2022-09-09T09:31:21;10.35;;;2.80;;
50495;SDS011;38806;51.554;5.704;2022-09-09T09:35:38;11.40;;;2.65;;
50495;SDS011;38806;51.554;5.704;2022-09-09T09:37:39;9.43;;;2.58;;
50495;SDS011;38806;51.554;5.704;2022-09-09T09:39:40;12.18;;;4.45;;
50495;SDS011;38806;51.554;5.704;2022-09-09T09:41:41;9.45;;;3.33;;
50495;SDS011;38806;51.554;5.704;2022-09-09T09:43:52;9.70;;;3.65;;
50495;SDS011;38806;51.554;5.704;2022-09-09T09:45:54;6.75;;;2.67;;
50495;SDS011;38806;51.554;5.704;2022-09-09T09:47:58;7.07;;;2.10;;
50495;SDS011;38806;51.554;5.704;2022-09-09T09:50:03;7.05;;;2.40;;
50495;SDS011;38806;51.554;5.704;2022-09-09T09:52:05;9.40;;;3.13;;
50495;SDS011;38806;51.554;5.704;2022-09-09T09:54:13;11.25;;;2.45;;
50495;SDS011;38806;51.554;5.704;2022-09-09T09:56:18;8.00;;;2.90;;
50495;SDS011;38806;51.554;5.704;2022-09-09T09:58:27;6.20;;;1.88;;
50495;SDS011;38806;51.554;5.704;2022-09-09T10:00:32;8.25;;;2.45;;
50495;SDS011;38806;51.554;5.704;2022-09-09T10:02:38;7.45;;;2.53;;
50495;SDS011;38806;51.554;5.704;2022-09-09T10:04:43;10.38;;;2.75;;
50495;SDS011;38806;51.554;5.704;2022-09-09T10:06:45;9.63;;;3.47;;
50495;SDS011;38806;51.554;5.704;2022-09-09T10:08:46;12.02;;;2.00;;
50495;SDS011;38806;51.554;5.704;2022-09-09T10:13:10;5.40;;;1.90;;
50495;SDS011;38806;51.554;5.704;2022-09-09T10:17:46;15.25;;;2.90;;
50495;SDS011;38806;51.554;5.704;2022-09-09T10:29:44;14.05;;;3.05;;
50495;SDS011;38806;51.554;5.704;2022-09-09T10:32:14;6.90;;;2.33;;
50495;SDS011;38806;51.554;5.704;2022-09-09T10:36:31;6.63;;;2.45;;
50495;SDS011;38806;51.554;5.704;2022-09-09T10:42:42;9.98;;;2.53;;
50495;SDS011;38806;51.554;5.704;2022-09-09T10:56:12;10.35;;;3.50;;
50495;SDS011;38806;51.554;5.704;2022-09-09T10:59:17;8.27;;;3.10;;
50495;SDS011;38806;51.554;5.704;2022-09-09T11:01:06;17.63;;;4.40;;
50495;SDS011;38806;51.554;5.704;2022-09-09T11:03:27;12.43;;;3.67;;
50495;SDS011;38806;51.554;5.704;2022-09-09T11:05:39;12.88;;;4.50;;
50495;SDS011;38806;51.554;5.704;2022-09-09T11:08:04;8.57;;;3.58;;
50495;SDS011;38806;51.554;5.704;2022-09-09T11:10:12;11.70;;;4.90;;
50495;SDS011;38806;51.554;5.704;2022-09-09T11:12:19;9.60;;;3.92;;
50495;SDS011;38806;51.554;5.704;2022-09-09T11:16:49;10.52;;;3.60;;
50495;SDS011;38806;51.554;5.704;2022-09-09T11:18:55;9.27;;;4.32;;
50495;SDS011;38806;51.554;5.704;2022-09-09T11:21:00;11.03;;;3.93;;
50495;SDS011;38806;51.554;5.704;2022-09-09T11:23:11;12.18;;;3.78;;
50495;SDS011;38806;51.554;5.704;2022-09-09T11:25:16;9.45;;;4.05;;
50495;SDS011;38806;51.554;5.704;2022-09-09T11:27:22;9.50;;;3.78;;
50495;SDS011;38806;51.554;5.704;2022-09-09T11:34:07;6.80;;;2.67;;
50495;SDS011;38806;51.554;5.704;2022-09-09T11:38:29;9.10;;;3.00;;
50495;SDS011;38806;51.554;5.704;2022-09-09T11:40:31;11.75;;;3.55;;
50495;SDS011;38806;51.554;5.704;2022-09-09T11:42:32;9.10;;;3.50;;
50495;SDS011;38806;51.554;5.704;2022-09-09T11:44:33;6.95;;;2.00;;
50495;SDS011;38806;51.554;5.704;2022-09-09T11:46:34;5.30;;;1.95;;
50495;SDS011;38806;51.554;5.704;2022-09-09T11:50:43;5.22;;;1.48;;
50495;SDS011;38806;51.554;5.704;2022-09-09T11:52:44;4.97;;;2.00;;
50495;SDS011;38806;51.554;5.704;2022-09-09T11:54:47;6.20;;;1.75;;
50495;SDS011;38806;51.554;5.704;2022-09-09T11:56:49;5.53;;;2.35;;
50495;SDS011;38806;51.554;5.704;2022-09-09T11:59:05;5.78;;;1.90;;
50495;SDS011;38806;51.554;5.704;2022-09-09T12:01:26;4.15;;;1.85;;
50495;SDS011;38806;51.554;5.704;2022-09-09T12:03:32;8.10;;;2.95;;
50495;SDS011;38806;51.554;5.704;2022-09-09T12:05:43;4.32;;;2.22;;
50495;SDS011;38806;51.554;5.704;2022-09-09T12:07:51;6.47;;;2.97;;
50495;SDS011;38806;51.554;5.704;2022-09-09T12:09:59;7.30;;;2.60;;
50495;SDS011;38806;51.554;5.704;2022-09-09T12:17:07;6.30;;;2.55;;
50495;SDS011;38806;51.554;5.704;2022-09-09T12:19:16;5.32;;;2.63;;
50495;SDS011;38806;51.554;5.704;2022-09-09T12:26:07;5.88;;;2.85;;
50495;SDS011;38806;51.554;5.704;2022-09-09T12:28:41;4.72;;;2.40;;
50495;SDS011;38806;51.554;5.704;2022-09-09T12:31:10;6.70;;;3.28;;
50495;SDS011;38806;51.554;5.704;2022-09-09T12:33:18;6.90;;;2.88;;
50495;SDS011;38806;51.554;5.704;2022-09-09T12:35:20;6.68;;;2.35;;
50495;SDS011;38806;51.554;5.704;2022-09-09T12:37:30;7.70;;;2.83;;
50495;SDS011;38806;51.554;5.704;2022-09-09T12:41:59;7.93;;;2.55;;
50495;SDS011;38806;51.554;5.704;2022-09-09T12:44:06;6.78;;;3.15;;
50495;SDS011;38806;51.554;5.704;2022-09-09T12:46:09;10.40;;;3.25;;
50495;SDS011;38806;51.554;5.704;2022-09-09T12:48:18;8.23;;;2.90;;
50495;SDS011;38806;51.554;5.704;2022-09-09T12:50:21;7.30;;;2.50;;
50495;SDS011;38806;51.554;5.704;2022-09-09T12:54:33;9.27;;;2.38;;
50495;SDS011;38806;51.554;5.704;2022-09-09T12:56:35;8.65;;;2.55;;
50495;SDS011;38806;51.554;5.704;2022-09-09T12:58:36;6.70;;;2.50;;
50495;SDS011;38806;51.554;5.704;2022-09-09T13:00:38;6.82;;;2.70;;
50495;SDS011;38806;51.554;5.704;2022-09-09T13:02:52;5.65;;;2.30;;
50495;SDS011;38806;51.554;5.704;2022-09-09T13:04:53;9.55;;;2.53;;
50495;SDS011;38806;51.554;5.704;2022-09-09T13:07:05;9.15;;;2.38;;
50495;SDS011;38806;51.554;5.704;2022-09-09T13:09:08;7.72;;;2.80;;
50495;SDS011;38806;51.554;5.704;2022-09-09T13:11:13;7.68;;;2.28;;
50495;SDS011;38806;51.554;5.704;2022-09-09T13:13:25;6.78;;;2.58;;
50495;SDS011;38806;51.554;5.704;2022-09-09T13:15:29;4.35;;;2.65;;
50495;SDS011;38806;51.554;5.704;2022-09-09T13:17:30;8.35;;;2.45;;
50495;SDS011;38806;51.554;5.704;2022-09-09T13:19:32;8.48;;;2.40;;
50495;SDS011;38806;51.554;5.704;2022-09-09T13:21:36;7.30;;;2.97;;
50495;SDS011;38806;51.554;5.704;2022-09-09T13:23:38;8.38;;;2.08;;
50495;SDS011;38806;51.554;5.704;2022-09-09T13:25:39;7.30;;;2.63;;
50495;SDS011;38806;51.554;5.704;2022-09-09T13:27:40;4.38;;;2.25;;
50495;SDS011;38806;51.554;5.704;2022-09-09T13:29:50;8.18;;;3.08;;
50495;SDS011;38806;51.554;5.704;2022-09-09T13:32:03;8.82;;;3.92;;
50495;SDS011;38806;51.554;5.704;2022-09-09T13:36:14;9.43;;;3.33;;
50495;SDS011;38806;51.554;5.704;2022-09-09T13:38:15;4.85;;;2.25;;
50495;SDS011;38806;51.554;5.704;2022-09-09T13:40:20;6.88;;;3.10;;
50495;SDS011;38806;51.554;5.704;2022-09-09T13:42:24;5.00;;;2.78;;
50495;SDS011;38806;51.554;5.704;2022-09-09T13:44:27;10.07;;;2.47;;
50495;SDS011;38806;51.554;5.704;2022-09-09T13:46:37;5.47;;;2.03;;
50495;SDS011;38806;51.554;5.704;2022-09-09T13:48:40;4.13;;;1.60;;
50495;SDS011;38806;51.554;5.704;2022-09-09T13:50:40;7.53;;;2.70;;
50495;SDS011;38806;51.554;5.704;2022-09-09T13:52:41;7.68;;;2.42;;
50495;SDS011;38806;51.554;5.704;2022-09-09T13:54:41;5.88;;;1.83;;
50495;SDS011;38806;51.554;5.704;2022-09-09T13:56:43;4.97;;;1.63;;
50495;SDS011;38806;51.554;5.704;2022-09-09T13:58:44;9.15;;;1.73;;
50495;SDS011;38806;51.554;5.704;2022-09-09T14:00:44;7.95;;;1.83;;
50495;SDS011;38806;51.554;5.704;2022-09-09T14:02:46;6.97;;;2.75;;
50495;SDS011;38806;51.554;5.704;2022-09-09T14:04:47;6.68;;;2.42;;
50495;SDS011;38806;51.554;5.704;2022-09-09T14:06:50;7.00;;;2.42;;
50495;SDS011;38806;51.554;5.704;2022-09-09T14:08:51;7.18;;;3.40;;
50495;SDS011;38806;51.554;5.704;2022-09-09T14:10:51;10.95;;;2.70;;
50495;SDS011;38806;51.554;5.704;2022-09-09T14:12:52;12.05;;;3.67;;
50495;SDS011;38806;51.554;5.704;2022-09-09T14:14:53;7.55;;;3.03;;
50495;SDS011;38806;51.554;5.704;2022-09-09T14:16:53;13.30;;;4.10;;
50495;SDS011;38806;51.554;5.704;2022-09-09T14:18:53;9.25;;;3.92;;
50495;SDS011;38806;51.554;5.704;2022-09-09T14:20:56;6.45;;;2.83;;
50495;SDS011;38806;51.554;5.704;2022-09-09T14:22:58;5.20;;;2.50;;
50495;SDS011;38806;51.554;5.704;2022-09-09T14:24:58;12.15;;;3.55;;
50495;SDS011;38806;51.554;5.704;2022-09-09T14:26:59;9.00;;;2.78;;
50495;SDS011;38806;51.554;5.704;2022-09-09T14:28:59;9.55;;;3.28;;
50495;SDS011;38806;51.554;5.704;2022-09-09T14:31:01;5.32;;;1.98;;
50495;SDS011;38806;51.554;5.704;2022-09-09T14:33:05;5.05;;;2.25;;
50495;SDS011;38806;51.554;5.704;2022-09-09T14:35:05;7.45;;;1.83;;
50495;SDS011;38806;51.554;5.704;2022-09-09T14:37:07;5.65;;;3.20;;
50495;SDS011;38806;51.554;5.704;2022-09-09T14:39:07;9.73;;;2.97;;
50495;SDS011;38806;51.554;5.704;2022-09-09T14:41:11;8.02;;;2.35;;
50495;SDS011;38806;51.554;5.704;2022-09-09T14:43:14;11.40;;;3.03;;
50495;SDS011;38806;51.554;5.704;2022-09-09T14:45:14;8.00;;;3.17;;
50495;SDS011;38806;51.554;5.704;2022-09-09T14:47:15;11.80;;;3.95;;
50495;SDS011;38806;51.554;5.704;2022-09-09T14:49:15;5.65;;;2.97;;
50495;SDS011;38806;51.554;5.704;2022-09-09T14:51:17;10.10;;;3.85;;
50495;SDS011;38806;51.554;5.704;2022-09-09T14:53:19;6.78;;;3.15;;
50495;SDS011;38806;51.554;5.704;2022-09-09T14:55:19;11.10;;;3.90;;
50495;SDS011;38806;51.554;5.704;2022-09-09T14:57:21;10.52;;;3.97;;
50495;SDS011;38806;51.554;5.704;2022-09-09T14:59:21;6.38;;;3.65;;
50495;SDS011;38806;51.554;5.704;2022-09-09T15:01:22;9.50;;;4.18;;
50495;SDS011;38806;51.554;5.704;2022-09-09T15:03:23;6.20;;;2.70;;
50495;SDS011;38806;51.554;5.704;2022-09-09T15:05:23;8.52;;;2.42;;
50495;SDS011;38806;51.554;5.704;2022-09-09T15:07:24;6.97;;;2.70;;
50495;SDS011;38806;51.554;5.704;2022-09-09T15:09:25;5.00;;;2.13;;
50495;SDS011;38806;51.554;5.704;2022-09-09T15:11:27;5.25;;;2.20;;
50495;SDS011;38806;51.554;5.704;2022-09-09T15:13:30;6.07;;;2.22;;
50495;SDS011;38806;51.554;5.704;2022-09-09T15:15:30;5.38;;;1.98;;
50495;SDS011;38806;51.554;5.704;2022-09-09T15:17:31;5.18;;;2.03;;
50495;SDS011;38806;51.554;5.704;2022-09-09T15:19:31;5.05;;;2.00;;
50495;SDS011;38806;51.554;5.704;2022-09-09T15:21:34;4.82;;;2.25;;
50495;SDS011;38806;51.554;5.704;2022-09-09T15:23:35;6.70;;;2.60;;
50495;SDS011;38806;51.554;5.704;2022-09-09T15:25:36;3.88;;;1.95;;
50495;SDS011;38806;51.554;5.704;2022-09-09T15:27:36;5.40;;;1.83;;
50495;SDS011;38806;51.554;5.704;2022-09-09T15:29:39;6.68;;;1.70;;
50495;SDS011;38806;51.554;5.704;2022-09-09T15:31:39;5.50;;;3.00;;
50495;SDS011;38806;51.554;5.704;2022-09-09T15:33:39;5.63;;;2.33;;
50495;SDS011;38806;51.554;5.704;2022-09-09T15:35:40;4.72;;;1.90;;
50495;SDS011;38806;51.554;5.704;2022-09-09T15:37:40;4.18;;;1.95;;
50495;SDS011;38806;51.554;5.704;2022-09-09T15:39:40;5.55;;;1.75;;
50495;SDS011;38806;51.554;5.704;2022-09-09T15:41:41;7.18;;;1.77;;
50495;SDS011;38806;51.554;5.704;2022-09-09T15:43:46;7.95;;;2.25;;
50495;SDS011;38806;51.554;5.704;2022-09-09T15:45:52;2.75;;;1.77;;
50495;SDS011;38806;51.554;5.704;2022-09-09T15:48:05;6.78;;;2.13;;
50495;SDS011;38806;51.554;5.704;2022-09-09T15:50:05;10.38;;;2.17;;
50495;SDS011;38806;51.554;5.704;2022-09-09T15:52:06;26.30;;;5.45;;
50495;SDS011;38806;51.554;5.704;2022-09-09T15:54:06;7.45;;;2.55;;
50495;SDS011;38806;51.554;5.704;2022-09-09T15:56:07;4.53;;;1.10;;
50495;SDS011;38806;51.554;5.704;2022-09-09T15:58:07;4.50;;;1.02;;
50495;SDS011;38806;51.554;5.704;2022-09-09T16:00:08;4.50;;;2.28;;
50495;SDS011;38806;51.554;5.704;2022-09-09T16:02:09;17.20;;;3.05;;
50495;SDS011;38806;51.554;5.704;2022-09-09T16:04:09;5.38;;;1.38;;
50495;SDS011;38806;51.554;5.704;2022-09-09T16:06:09;3.88;;;1.63;;
50495;SDS011;38806;51.554;5.704;2022-09-09T16:08:10;4.57;;;2.13;;
50495;SDS011;38806;51.554;5.704;2022-09-09T16:10:10;6.20;;;2.22;;
50495;SDS011;38806;51.554;5.704;2022-09-09T16:12:11;17.08;;;5.70;;
50495;SDS011;38806;51.554;5.704;2022-09-09T16:14:13;20.50;;;4.85;;
50495;SDS011;38806;51.554;5.704;2022-09-09T16:16:16;10.02;;;4.05;;
50495;SDS011;38806;51.554;5.704;2022-09-09T16:18:19;15.30;;;6.57;;
50495;SDS011;38806;51.554;5.704;2022-09-09T16:20:20;22.55;;;6.47;;
50495;SDS011;38806;51.554;5.704;2022-09-09T16:22:20;8.38;;;4.97;;
50495;SDS011;38806;51.554;5.704;2022-09-09T16:24:21;8.65;;;4.90;;
50495;SDS011;38806;51.554;5.704;2022-09-09T16:26:21;8.27;;;4.47;;
50495;SDS011;38806;51.554;5.704;2022-09-09T16:28:22;7.80;;;4.55;;
50495;SDS011;38806;51.554;5.704;2022-09-09T16:30:22;12.75;;;5.13;;
50495;SDS011;38806;51.554;5.704;2022-09-09T16:32:23;10.07;;;4.57;;
50495;SDS011;38806;51.554;5.704;2022-09-09T16:34:23;13.32;;;5.40;;
50495;SDS011;38806;51.554;5.704;2022-09-09T16:36:26;11.45;;;6.10;;
50495;SDS011;38806;51.554;5.704;2022-09-09T16:38:27;12.65;;;5.90;;
50495;SDS011;38806;51.554;5.704;2022-09-09T16:40:27;8.60;;;5.93;;
50495;SDS011;38806;51.554;5.704;2022-09-09T16:42:28;13.20;;;6.57;;
50495;SDS011;38806;51.554;5.704;2022-09-09T16:44:28;16.95;;;9.85;;
50495;SDS011;38806;51.554;5.704;2022-09-09T16:46:29;12.13;;;8.20;;
50495;SDS011;38806;51.554;5.704;2022-09-09T16:48:31;12.57;;;6.20;;
50495;SDS011;38806;51.554;5.704;2022-09-09T16:50:33;9.05;;;5.53;;
50495;SDS011;38806;51.554;5.704;2022-09-09T16:52:33;10.68;;;6.57;;
50495;SDS011;38806;51.554;5.704;2022-09-09T16:54:33;15.60;;;5.93;;
50495;SDS011;38806;51.554;5.704;2022-09-09T16:56:34;20.15;;;7.93;;
50495;SDS011;38806;51.554;5.704;2022-09-09T16:58:41;13.20;;;6.82;;
50495;SDS011;38806;51.554;5.704;2022-09-09T17:00:43;9.85;;;7.40;;
50495;SDS011;38806;51.554;5.704;2022-09-09T17:02:43;15.70;;;8.73;;
50495;SDS011;38806;51.554;5.704;2022-09-09T17:04:44;13.80;;;8.32;;
50495;SDS011;38806;51.554;5.704;2022-09-09T17:06:45;15.05;;;9.38;;
50495;SDS011;38806;51.554;5.704;2022-09-09T17:08:46;15.38;;;8.95;;
50495;SDS011;38806;51.554;5.704;2022-09-09T17:10:48;16.00;;;9.52;;
50495;SDS011;38806;51.554;5.704;2022-09-09T17:12:49;13.77;;;9.65;;
50495;SDS011;38806;51.554;5.704;2022-09-09T17:14:49;13.43;;;10.15;;
50495;SDS011;38806;51.554;5.704;2022-09-09T17:16:49;16.58;;;9.85;;
50495;SDS011;38806;51.554;5.704;2022-09-09T17:18:50;14.38;;;9.25;;